Time;durP1;ratioP1;P1;durP2;ratioP2;P2;SDS_P1;SDS_P2;PMS_P1;PMS_P2;Temp;Humidity;BMP_temperature;BMP_pressure;BME280_temperature;BME280_humidity;BME280_pressure;Samples;Min_cycle;Max_cycle;Signal;HPM_P1;HPM_P2
2022/12/30 00:01:49;;;;;;;12.00;3.20;;;7.20;99.90;;;;;;5060329;28;20284;-92
2022/12/30 00:04:24;;;;;;;10.50;2.27;;;7.20;99.90;;;;;;5060695;28;20226;-93
2022/12/30 00:06:55;;;;;;;12.20;2.73;;;7.20;99.90;;;;;;5063689;28;20198;-91
2022/12/30 00:09:26;;;;;;;15.80;3.17;;;7.20;99.90;;;;;;5061646;28;20321;-93
2022/12/30 00:33:06;;;;;;;10.87;2.70;;;7.20;99.90;;;;;;5061453;28;20209;-91
2022/12/30 00:34:22;;;;;;;11.97;2.87;;;7.30;99.90;;;;;;5058005;28;20221;-94
2022/12/30 00:36:54;;;;;;;10.53;2.90;;;7.20;99.90;;;;;;5058607;28;20607;-91
2022/12/30 00:39:22;;;;;;;12.00;3.40;;;7.30;99.90;;;;;;5057936;28;20246;-93
2022/12/30 00:44:34;;;;;;;15.57;4.10;;;7.10;99.90;;;;;;5057113;28;20541;-92
2022/12/30 00:47:04;;;;;;;14.80;4.57;;;7.10;99.90;;;;;;5056571;28;20983;-92
2022/12/30 00:58:01;;;;;;;14.77;3.40;;;7.00;99.90;;;;;;5056683;28;20193;-91
2022/12/30 01:00:38;;;;;;;10.93;3.93;;;7.00;99.90;;;;;;5057885;28;20291;-93
2022/12/30 01:03:08;;;;;;;14.40;3.90;;;6.90;99.90;;;;;;5058005;28;20805;-93
2022/12/30 01:05:39;;;;;;;14.03;4.50;;;6.90;99.90;;;;;;5057210;28;20646;-92
2022/12/30 01:08:14;;;;;;;11.07;3.20;;;6.90;99.90;;;;;;5057683;28;20297;-92
2022/12/30 01:10:50;;;;;;;12.27;2.90;;;6.80;99.90;;;;;;5057721;28;20225;-92
2022/12/30 01:13:17;;;;;;;13.50;3.40;;;6.80;99.90;;;;;;5058461;28;20208;-91
2022/12/30 01:15:45;;;;;;;12.67;3.50;;;6.80;99.90;;;;;;5058666;28;20298;-92
2022/12/30 01:18:15;;;;;;;11.83;3.27;;;6.80;99.90;;;;;;5057519;28;20290;-92
2022/12/30 01:20:44;;;;;;;9.63;2.93;;;6.80;99.90;;;;;;5058223;28;20238;-93
2022/12/30 01:23:14;;;;;;;16.10;3.73;;;6.70;99.90;;;;;;5057082;28;20229;-91
2022/12/30 01:25:49;;;;;;;13.47;3.17;;;6.70;99.90;;;;;;5060377;28;20198;-94
2022/12/30 01:28:35;;;;;;;14.07;3.50;;;6.70;99.90;;;;;;5060918;28;20202;-92
2022/12/30 01:31:10;;;;;;;17.43;3.80;;;6.70;99.90;;;;;;5059967;28;20226;-93
2022/12/30 01:33:44;;;;;;;8.70;2.70;;;6.70;99.90;;;;;;5059060;28;20772;-90
2022/12/30 01:36:21;;;;;;;11.93;3.53;;;6.80;99.90;;;;;;5058747;28;20249;-92
2022/12/30 01:38:56;;;;;;;18.30;5.30;;;6.70;99.90;;;;;;5057043;28;20457;-91
2022/12/30 01:41:25;;;;;;;10.27;3.57;;;6.70;99.90;;;;;;5058731;28;20497;-93
2022/12/30 01:44:31;;;;;;;13.90;3.50;;;6.60;99.90;;;;;;5056979;28;20210;-93
2022/12/30 01:47:02;;;;;;;13.73;3.50;;;6.70;99.90;;;;;;5057181;28;20733;-92
2022/12/30 01:49:31;;;;;;;9.70;3.47;;;6.70;99.90;;;;;;5056911;28;20712;-91
2022/12/30 01:52:01;;;;;;;13.37;3.57;;;6.70;99.90;;;;;;5057212;28;20214;-92
2022/12/30 01:54:37;;;;;;;12.47;3.23;;;6.70;99.90;;;;;;5056756;28;20206;-92
2022/12/30 01:57:08;;;;;;;13.17;3.47;;;6.70;99.90;;;;;;5057192;28;20229;-93
2022/12/30 01:59:38;;;;;;;11.13;3.00;;;6.60;99.90;;;;;;5057541;28;20245;-91
2022/12/30 02:02:12;;;;;;;14.03;3.00;;;6.60;99.90;;;;;;5057948;28;20343;-94
2022/12/30 02:04:41;;;;;;;15.47;3.30;;;6.60;99.90;;;;;;5057637;28;20669;-91
2022/12/30 02:07:34;;;;;;;12.60;3.10;;;6.60;99.90;;;;;;5057839;28;20237;-93
2022/12/30 02:10:07;;;;;;;13.40;3.70;;;6.60;99.90;;;;;;5057237;28;20622;-92
2022/12/30 02:12:44;;;;;;;15.97;3.70;;;6.60;99.90;;;;;;5056092;28;20703;-90
2022/12/30 02:15:25;;;;;;;12.80;3.07;;;6.60;99.90;;;;;;5055813;28;20272;-94
2022/12/30 02:18:00;;;;;;;14.57;3.27;;;6.50;99.90;;;;;;5056281;28;20237;-93
2022/12/30 02:21:16;;;;;;;14.23;4.03;;;6.50;99.90;;;;;;5038582;28;20221;-92
2022/12/30 02:24:20;;;;;;;13.20;3.43;;;6.40;99.90;;;;;;5057614;28;20221;-92
2022/12/30 02:27:18;;;;;;;13.60;3.30;;;6.40;99.90;;;;;;5025917;28;20206;-91
2022/12/30 02:30:06;;;;;;;19.05;4.38;;;6.40;99.90;;;;;;5053651;28;20441;-91
2022/12/30 02:33:07;;;;;;;15.40;3.70;;;6.40;99.90;;;;;;5057106;28;20202;-92
2022/12/30 02:35:47;;;;;;;17.70;3.67;;;6.40;99.90;;;;;;5056684;28;20695;-92
2022/12/30 02:38:39;;;;;;;12.43;3.00;;;6.40;99.90;;;;;;5057157;28;20697;-95
2022/12/30 02:47:00;;;;;;;9.73;2.67;;;6.40;99.90;;;;;;5055790;28;20193;-93
2022/12/30 02:49:35;;;;;;;14.90;3.97;;;6.40;99.90;;;;;;5056643;28;20245;-92
2022/12/30 02:52:17;;;;;;;10.73;3.23;;;6.30;99.90;;;;;;5056644;28;20256;-90
2022/12/30 02:54:50;;;;;;;15.00;3.30;;;6.30;99.90;;;;;;5056586;28;20209;-91
2022/12/30 02:57:34;;;;;;;11.90;2.90;;;6.30;99.90;;;;;;5055956;28;20257;-91
2022/12/30 03:05:59;;;;;;;15.00;4.53;;;6.20;99.90;;;;;;5035649;28;20435;-92
2022/12/30 03:08:47;;;;;;;12.33;3.10;;;6.20;99.90;;;;;;5034615;28;20211;-91
2022/12/30 03:11:18;;;;;;;10.87;3.27;;;6.20;99.90;;;;;;5058473;28;20317;-91
2022/12/30 03:13:59;;;;;;;14.47;3.37;;;6.30;99.90;;;;;;5064662;28;20218;-93
2022/12/30 03:16:36;;;;;;;10.43;3.13;;;6.30;99.90;;;;;;5039996;28;20265;-92
2022/12/30 03:19:15;;;;;;;11.97;3.20;;;6.30;99.90;;;;;;5056585;28;20206;-89
2022/12/30 03:21:44;;;;;;;16.93;4.57;;;6.20;99.90;;;;;;5090132;28;20437;-92
2022/12/30 03:27:05;;;;;;;13.40;3.30;;;6.40;99.90;;;;;;5099301;28;20245;-93
2022/12/30 03:29:37;;;;;;;11.20;3.50;;;6.30;99.90;;;;;;5086359;28;20198;-91
2022/12/30 03:32:06;;;;;;;14.07;3.10;;;6.20;99.90;;;;;;5091814;28;20178;-92
2022/12/30 03:34:33;;;;;;;14.87;3.37;;;6.30;99.90;;;;;;5099341;28;20198;-92
2022/12/30 03:37:14;;;;;;;9.95;2.75;;;6.30;99.90;;;;;;5092269;28;20475;-92
2022/12/30 03:39:52;;;;;;;12.27;2.87;;;6.20;99.90;;;;;;5080827;28;20236;-92
2022/12/30 03:42:26;;;;;;;18.27;2.97;;;6.30;99.90;;;;;;5080140;28;20213;-92
2022/12/30 03:44:54;;;;;;;14.90;3.23;;;6.20;99.90;;;;;;5080133;28;20225;-91
2022/12/30 03:47:30;;;;;;;18.83;3.90;;;6.20;99.90;;;;;;5080435;28;20209;-93
2022/12/30 03:50:19;;;;;;;12.43;2.90;;;6.10;99.90;;;;;;5080922;28;20683;-93
2022/12/30 03:52:49;;;;;;;14.00;3.90;;;6.10;99.90;;;;;;5062457;28;20672;-92
2022/12/30 03:55:54;;;;;;;19.43;4.43;;;6.10;99.90;;;;;;5079541;28;20459;-91
2022/12/30 03:58:33;;;;;;;13.30;3.20;;;6.10;99.90;;;;;;5077362;28;20976;-94
2022/12/30 04:01:02;;;;;;;9.50;3.10;;;6.10;99.90;;;;;;5079319;28;20309;-91
2022/12/30 04:03:37;;;;;;;12.50;3.17;;;6.20;99.90;;;;;;5080135;28;20220;-92
2022/12/30 04:06:08;;;;;;;16.63;3.00;;;6.10;99.90;;;;;;5079548;28;20255;-92
2022/12/30 04:08:36;;;;;;;16.10;3.60;;;6.10;99.90;;;;;;5079508;28;20255;-90
2022/12/30 04:11:14;;;;;;;17.80;4.43;;;6.10;99.90;;;;;;5077887;28;20440;-92
2022/12/30 04:13:44;;;;;;;13.00;3.50;;;6.00;99.90;;;;;;5079038;28;20204;-91
2022/12/30 04:16:19;;;;;;;14.00;3.23;;;6.10;99.90;;;;;;5040248;28;20222;-90
2022/12/30 04:18:53;;;;;;;13.83;2.57;;;6.10;99.90;;;;;;5043806;28;20261;-91
2022/12/30 04:21:22;;;;;;;9.37;3.17;;;6.00;99.90;;;;;;5041398;28;20257;-91
2022/12/30 04:23:49;;;;;;;18.50;4.57;;;6.00;99.90;;;;;;5043646;28;20214;-92
2022/12/30 04:26:26;;;;;;;15.50;2.90;;;6.10;99.90;;;;;;5041148;28;20666;-91
2022/12/30 04:28:53;;;;;;;16.40;3.20;;;6.00;99.90;;;;;;5039977;28;20199;-91
2022/12/30 04:31:24;;;;;;;15.10;3.87;;;6.10;99.90;;;;;;5039705;28;20227;-91
2022/12/30 04:33:51;;;;;;;16.03;3.20;;;6.10;99.90;;;;;;5039316;28;20267;-94
2022/12/30 04:36:22;;;;;;;10.07;2.77;;;6.00;99.90;;;;;;5039388;28;20290;-91
2022/12/30 04:38:49;;;;;;;14.33;3.70;;;5.90;99.90;;;;;;5039442;28;20302;-91
2022/12/30 04:41:23;;;;;;;12.90;3.47;;;5.80;99.90;;;;;;5040082;28;20222;-92
2022/12/30 04:43:52;;;;;;;10.20;2.83;;;5.80;99.90;;;;;;5040468;28;20330;-92
2022/12/30 04:46:29;;;;;;;14.00;3.00;;;5.90;99.90;;;;;;5040357;28;20215;-93
2022/12/30 04:48:57;;;;;;;12.67;2.60;;;5.90;99.90;;;;;;5040510;28;20638;-90
2022/12/30 04:51:28;;;;;;;15.53;3.57;;;5.90;99.90;;;;;;5039799;28;20227;-91
2022/12/30 04:53:57;;;;;;;11.03;3.10;;;5.80;99.90;;;;;;5039575;28;20195;-91
2022/12/30 04:56:26;;;;;;;13.20;3.60;;;5.80;99.90;;;;;;5039134;28;20222;-93
2022/12/30 04:58:56;;;;;;;11.53;3.33;;;5.80;99.90;;;;;;5038448;28;20206;-94
2022/12/30 05:01:26;;;;;;;19.80;3.47;;;5.80;99.90;;;;;;5037423;28;20227;-93
2022/12/30 05:03:57;;;;;;;13.80;3.17;;;5.80;99.90;;;;;;5038645;28;20183;-92
2022/12/30 05:06:27;;;;;;;18.87;3.93;;;5.90;99.90;;;;;;5038171;28;20261;-94
2022/12/30 05:08:57;;;;;;;18.10;4.43;;;5.80;99.90;;;;;;5038537;28;20744;-94
2022/12/30 05:11:30;;;;;;;14.43;3.63;;;5.80;99.90;;;;;;5041004;28;20314;-92
2022/12/30 05:13:58;;;;;;;16.60;3.97;;;5.70;99.90;;;;;;5039469;28;20210;-92
2022/12/30 05:16:26;;;;;;;14.50;3.53;;;5.80;99.90;;;;;;5039060;28;20227;-91
2022/12/30 05:18:53;;;;;;;11.63;3.50;;;5.70;99.90;;;;;;5039478;28;20294;-93
2022/12/30 05:21:20;;;;;;;15.38;4.65;;;5.90;99.90;;;;;;5036007;28;20523;-93
2022/12/30 05:26:33;;;;;;;14.03;3.97;;;6.00;99.90;;;;;;5029291;28;20249;-92
2022/12/30 05:29:06;;;;;;;16.90;3.93;;;5.90;99.90;;;;;;5038880;28;20202;-91
2022/12/30 05:31:39;;;;;;;12.57;3.67;;;5.90;99.90;;;;;;5039229;28;20669;-93
2022/12/30 05:34:10;;;;;;;20.67;4.50;;;6.00;99.90;;;;;;5038379;28;20218;-93
2022/12/30 05:36:39;;;;;;;14.70;4.37;;;6.00;99.90;;;;;;5039195;28;20297;-91
2022/12/30 05:39:08;;;;;;;13.20;4.33;;;5.90;99.90;;;;;;5037971;28;20293;-94
2022/12/30 05:41:40;;;;;;;14.27;4.10;;;5.90;99.90;;;;;;5037554;28;20203;-93
2022/12/30 05:44:10;;;;;;;13.43;3.97;;;5.90;99.90;;;;;;5039374;28;20219;-92
2022/12/30 05:46:40;;;;;;;15.10;5.00;;;5.90;99.90;;;;;;5040877;28;20233;-92
2022/12/30 05:49:10;;;;;;;10.73;4.07;;;6.00;99.90;;;;;;5039501;28;20211;-92
2022/12/30 05:51:43;;;;;;;9.20;4.60;;;6.00;99.90;;;;;;5039320;28;20295;-93
2022/12/30 05:54:11;;;;;;;20.38;5.75;;;6.00;99.90;;;;;;5038460;28;20442;-91
2022/12/30 05:56:50;;;;;;;17.50;4.90;;;6.10;99.90;;;;;;5037900;28;20662;-92
2022/12/30 05:59:18;;;;;;;14.70;5.00;;;6.10;99.90;;;;;;5037423;28;20233;-95
2022/12/30 06:01:46;;;;;;;19.53;4.83;;;6.10;99.90;;;;;;5043543;28;20211;-91
2022/12/30 06:04:16;;;;;;;12.63;4.83;;;6.10;99.90;;;;;;5052644;28;20219;-93
2022/12/30 06:06:47;;;;;;;15.03;5.00;;;6.10;99.90;;;;;;5046079;28;20206;-94
2022/12/30 06:09:14;;;;;;;15.53;4.30;;;6.20;99.90;;;;;;5057225;28;20201;-93
2022/12/30 06:11:41;;;;;;;21.63;6.22;;;6.30;99.90;;;;;;5082412;28;20441;-93
2022/12/30 06:14:15;;;;;;;20.07;5.27;;;6.30;99.90;;;;;;5088195;28;20194;-91
2022/12/30 06:16:48;;;;;;;12.33;4.77;;;6.40;99.90;;;;;;5079724;28;20221;-92
2022/12/30 06:19:18;;;;;;;22.17;4.93;;;6.40;99.90;;;;;;5040349;28;20580;-90
2022/12/30 06:21:45;;;;;;;14.87;5.70;;;6.40;99.90;;;;;;5049327;28;20249;-92
2022/12/30 06:24:14;;;;;;;17.43;4.37;;;6.60;99.90;;;;;;5052215;28;20552;-93
2022/12/30 06:26:43;;;;;;;11.33;4.40;;;6.60;99.90;;;;;;5050196;28;20206;-92
2022/12/30 06:29:22;;;;;;;10.83;4.20;;;6.60;99.90;;;;;;5039812;28;20729;-92
2022/12/30 06:31:52;;;;;;;11.93;4.27;;;6.60;99.90;;;;;;5041829;28;20203;-92
2022/12/30 06:34:26;;;;;;;19.57;3.90;;;6.60;99.90;;;;;;5078232;28;20292;-91
2022/12/30 06:37:11;;;;;;;6.73;3.23;;;6.60;99.90;;;;;;5080222;28;20240;-91
2022/12/30 06:39:44;;;;;;;12.83;3.50;;;6.70;99.90;;;;;;5073198;28;20325;-94
2022/12/30 06:42:11;;;;;;;4.53;2.60;;;6.80;99.90;;;;;;5058636;28;20630;-91
2022/12/30 06:44:42;;;;;;;12.67;3.17;;;6.80;99.90;;;;;;5053029;28;20302;-90
2022/12/30 06:47:12;;;;;;;14.88;4.03;;;7.00;99.90;;;;;;5051378;28;20446;-91
2022/12/30 06:50:04;;;;;;;14.70;2.83;;;7.00;99.90;;;;;;5081116;28;20259;-91
2022/12/30 06:52:37;;;;;;;8.10;2.87;;;7.00;99.90;;;;;;5060546;28;20242;-91
2022/12/30 06:55:12;;;;;;;11.43;3.47;;;7.00;99.90;;;;;;5055206;28;20211;-91
2022/12/30 06:57:45;;;;;;;9.47;2.83;;;6.90;99.90;;;;;;5048194;28;20264;-94
2022/12/30 07:00:17;;;;;;;7.83;3.07;;;7.00;99.90;;;;;;5050344;28;20317;-91
2022/12/30 07:02:52;;;;;;;10.25;3.42;;;7.00;99.90;;;;;;5063255;28;20484;-93
2022/12/30 07:05:26;;;;;;;10.47;2.93;;;7.10;99.90;;;;;;5047938;28;20242;-93
2022/12/30 07:07:55;;;;;;;3.70;1.87;;;7.10;99.90;;;;;;5075110;28;20268;-92
2022/12/30 07:10:23;;;;;;;7.63;2.53;;;7.10;99.90;;;;;;5066335;28;20227;-93
2022/12/30 07:12:52;;;;;;;7.30;2.87;;;7.20;99.90;;;;;;5054929;28;20211;-92
2022/12/30 07:15:24;;;;;;;11.30;3.20;;;7.20;99.90;;;;;;5052913;28;20624;-92
2022/12/30 07:17:51;;;;;;;5.93;2.40;;;7.20;99.90;;;;;;5054923;28;20234;-90
2022/12/30 07:20:21;;;;;;;10.70;3.40;;;7.10;99.90;;;;;;5056193;28;20506;-92
2022/12/30 07:22:48;;;;;;;11.10;3.10;;;7.30;99.90;;;;;;5068138;28;20218;-91
2022/12/30 07:25:21;;;;;;;6.90;2.57;;;7.20;99.90;;;;;;5048057;28;20321;-93
2022/12/30 07:27:48;;;;;;;8.67;2.60;;;7.20;99.90;;;;;;5073242;28;20198;-91
2022/12/30 07:30:23;;;;;;;5.33;2.03;;;7.20;99.90;;;;;;5059933;28;20230;-92
2022/12/30 07:32:53;;;;;;;9.93;2.50;;;7.20;99.90;;;;;;5071246;28;20688;-92
2022/12/30 07:35:24;;;;;;;5.90;2.63;;;7.20;99.90;;;;;;5050666;28;20237;-92
2022/12/30 07:37:53;;;;;;;11.60;3.58;;;7.30;99.90;;;;;;5048363;28;20990;-92
2022/12/30 07:40:23;;;;;;;10.17;2.77;;;7.50;99.90;;;;;;5057324;28;20231;-93
2022/12/30 07:42:53;;;;;;;5.13;2.30;;;7.50;99.90;;;;;;5042319;28;20211;-93
2022/12/30 07:45:24;;;;;;;7.77;2.73;;;7.50;99.90;;;;;;5045534;28;20215;-91
2022/12/30 07:48:04;;;;;;;11.07;2.20;;;7.60;99.90;;;;;;5063027;28;20222;-92
2022/12/30 07:50:39;;;;;;;8.63;3.03;;;7.50;99.90;;;;;;5049765;28;20265;-92
2022/12/30 07:53:12;;;;;;;8.47;2.37;;;7.50;99.90;;;;;;5058129;28;20206;-91
2022/12/30 07:55:42;;;;;;;8.37;2.67;;;7.40;99.90;;;;;;5047725;28;20296;-92
2022/12/30 07:58:15;;;;;;;10.43;2.63;;;7.40;99.90;;;;;;5055182;28;20326;-92
2022/12/30 08:00:48;;;;;;;9.90;2.53;;;7.50;99.90;;;;;;5037456;28;20254;-94
2022/12/30 08:03:18;;;;;;;3.57;2.40;;;7.60;99.90;;;;;;5036250;28;20302;-92
2022/12/30 08:05:51;;;;;;;6.47;2.27;;;7.60;99.90;;;;;;5037178;28;20234;-92
2022/12/30 08:08:22;;;;;;;11.07;2.93;;;7.60;99.90;;;;;;5051087;28;20210;-92
2022/12/30 08:10:58;;;;;;;9.73;2.60;;;7.50;99.90;;;;;;5038841;28;20282;-91
2022/12/30 08:13:32;;;;;;;7.60;2.20;;;7.50;99.90;;;;;;5041763;28;20642;-91
2022/12/30 08:16:03;;;;;;;5.40;2.10;;;7.50;99.90;;;;;;5069234;28;20776;-91
2022/12/30 08:18:30;;;;;;;9.17;1.97;;;7.50;99.90;;;;;;5044723;28;20277;-92
2022/12/30 08:21:00;;;;;;;9.23;3.03;;;7.50;99.90;;;;;;5058150;28;20265;-92
2022/12/30 08:23:27;;;;;;;9.03;2.43;;;7.50;99.90;;;;;;5043571;28;20576;-90
2022/12/30 08:25:54;;;;;;;8.57;2.13;;;7.50;99.90;;;;;;5057924;28;20245;-91
2022/12/30 08:28:24;;;;;;;7.65;2.40;;;7.80;99.90;;;;;;5054835;28;20441;-91
2022/12/30 08:30:52;;;;;;;7.40;2.10;;;7.70;99.90;;;;;;5058791;28;20233;-93
2022/12/30 08:33:26;;;;;;;7.03;2.17;;;7.60;99.90;;;;;;5065478;28;20621;-93
2022/12/30 08:36:01;;;;;;;7.37;2.43;;;7.70;99.90;;;;;;5038757;28;20211;-94
2022/12/30 08:38:30;;;;;;;5.50;2.20;;;7.70;99.90;;;;;;5054777;28;20252;-91
2022/12/30 08:41:05;;;;;;;6.83;2.10;;;7.80;99.90;;;;;;5059554;28;20709;-92
2022/12/30 08:43:38;;;;;;;5.33;2.20;;;7.80;99.90;;;;;;5044977;28;20216;-91
2022/12/30 08:46:08;;;;;;;7.67;2.53;;;7.80;99.90;;;;;;5049911;28;20846;-92
2022/12/30 08:48:40;;;;;;;8.17;2.40;;;7.90;99.90;;;;;;5048210;28;20517;-92
2022/12/30 08:51:11;;;;;;;8.20;2.60;;;7.80;99.90;;;;;;5050113;28;20230;-91
2022/12/30 08:53:42;;;;;;;9.03;2.33;;;7.90;99.90;;;;;;5045001;28;20211;-92
2022/12/30 08:56:15;;;;;;;11.37;2.70;;;7.90;99.90;;;;;;5050754;28;20214;-91
2022/12/30 08:58:43;;;;;;;7.40;2.33;;;8.00;99.90;;;;;;5056329;28;20260;-90
2022/12/30 09:01:28;;;;;;;7.60;2.23;;;8.00;99.90;;;;;;5044506;28;20275;-91
2022/12/30 09:04:06;;;;;;;7.43;2.10;;;8.00;99.90;;;;;;5037527;28;20609;-90
2022/12/30 09:06:57;;;;;;;5.90;2.03;;;8.00;99.90;;;;;;5043406;28;20757;-92
2022/12/30 09:09:30;;;;;;;9.57;2.10;;;8.20;99.90;;;;;;5042232;28;20227;-91
2022/12/30 09:12:07;;;;;;;11.33;2.40;;;8.10;99.90;;;;;;5036198;28;20211;-93
2022/12/30 09:14:56;;;;;;;6.57;2.10;;;8.20;99.90;;;;;;5054575;28;20253;-92
2022/12/30 09:17:29;;;;;;;7.20;1.60;;;8.20;99.90;;;;;;5056420;28;20284;-90
2022/12/30 09:20:04;;;;;;;5.40;1.80;;;8.30;99.90;;;;;;5041669;28;20254;-91
2022/12/30 09:22:37;;;;;;;7.70;2.60;;;8.40;99.90;;;;;;5053450;28;20427;-92
2022/12/30 09:25:05;;;;;;;5.37;1.97;;;8.40;99.90;;;;;;5063600;28;20289;-92
2022/12/30 09:27:42;;;;;;;10.00;1.87;;;8.30;99.90;;;;;;5049759;28;20264;-92
2022/12/30 09:30:28;;;;;;;10.17;2.70;;;8.30;99.90;;;;;;5052087;28;20259;-90
2022/12/30 09:32:56;;;;;;;5.40;1.53;;;8.30;99.90;;;;;;5057029;28;20233;-90
2022/12/30 09:35:27;;;;;;;2.60;1.40;;;8.30;99.90;;;;;;5066591;28;20215;-93
2022/12/30 09:38:00;;;;;;;9.57;2.20;;;8.40;99.90;;;;;;5043130;28;20449;-91
2022/12/30 09:40:54;;;;;;;3.70;1.80;;;8.30;99.90;;;;;;5038977;28;20294;-92
2022/12/30 09:43:29;;;;;;;3.63;1.80;;;8.40;99.90;;;;;;5047888;28;20210;-91
2022/12/30 09:46:23;;;;;;;7.00;2.07;;;8.50;99.90;;;;;;5051364;28;20211;-92
2022/12/30 09:49:05;;;;;;;7.67;1.90;;;8.40;99.90;;;;;;5038389;28;20233;-92
2022/12/30 09:51:42;;;;;;;5.10;2.10;;;8.50;99.90;;;;;;5050650;28;20238;-93
2022/12/30 09:54:19;;;;;;;5.00;1.87;;;8.50;99.90;;;;;;5041931;28;20230;-89
2022/12/30 09:57:30;;;;;;;8.93;2.67;;;8.50;99.90;;;;;;5037805;28;20427;-91
2022/12/30 10:00:07;;;;;;;8.90;2.20;;;8.60;99.90;;;;;;5053092;28;20230;-91
2022/12/30 10:02:52;;;;;;;8.30;2.13;;;8.70;99.90;;;;;;5041515;28;20490;-90
2022/12/30 10:05:31;;;;;;;5.17;1.77;;;8.80;99.90;;;;;;5044982;28;20210;-89
2022/12/30 10:08:06;;;;;;;7.67;1.93;;;8.80;99.90;;;;;;5063633;28;20302;-88
2022/12/30 10:10:43;;;;;;;7.30;2.13;;;8.90;99.90;;;;;;5035714;28;20241;-88
2022/12/30 10:13:22;;;;;;;9.17;2.67;;;8.90;99.90;;;;;;5035502;28;20503;-92
2022/12/30 10:16:02;;;;;;;8.50;2.03;;;8.90;99.90;;;;;;5041833;28;20241;-91
2022/12/30 10:19:06;;;;;;;3.67;1.53;;;9.00;99.90;;;;;;5054540;28;20261;-92
2022/12/30 10:21:47;;;;;;;4.83;1.73;;;9.10;99.90;;;;;;5055469;28;20213;-90
2022/12/30 10:24:50;;;;;;;7.73;1.73;;;9.10;99.90;;;;;;5068296;28;20305;-90
2022/12/30 10:27:20;;;;;;;5.73;1.70;;;9.10;99.90;;;;;;5032755;28;20237;-94
2022/12/30 10:29:48;;;;;;;8.33;2.10;;;9.20;99.90;;;;;;5056681;28;20234;-89
2022/12/30 10:32:20;;;;;;;6.90;1.73;;;9.10;99.90;;;;;;5046350;28;20301;-93
2022/12/30 10:34:59;;;;;;;8.73;2.13;;;9.20;99.90;;;;;;5069704;28;20708;-92
2022/12/30 10:37:32;;;;;;;6.23;1.90;;;9.20;99.90;;;;;;5047569;28;20202;-93
2022/12/30 10:40:08;;;;;;;9.80;2.20;;;9.20;99.90;;;;;;5050388;28;20219;-92
2022/12/30 10:43:16;;;;;;;8.90;1.87;;;9.30;99.90;;;;;;5071379;28;20198;-91
2022/12/30 10:46:01;;;;;;;3.50;1.67;;;9.30;99.90;;;;;;5043532;28;20209;-90
2022/12/30 10:48:54;;;;;;;9.40;1.77;;;9.40;99.90;;;;;;5058875;28;20772;-92
2022/12/30 10:51:25;;;;;;;2.87;1.70;;;9.30;99.90;;;;;;5055719;28;20249;-89
2022/12/30 10:53:59;;;;;;;6.23;2.10;;;9.30;99.90;;;;;;5049573;28;20337;-91
2022/12/30 10:56:36;;;;;;;8.63;2.80;;;9.20;99.90;;;;;;5054310;28;20306;-89
2022/12/30 10:59:13;;;;;;;3.57;1.40;;;9.20;99.90;;;;;;5034393;28;20251;-90
2022/12/30 11:01:42;;;;;;;4.97;1.57;;;9.20;99.90;;;;;;5034906;28;20202;-91
2022/12/30 11:04:33;;;;;;;2.33;1.37;;;9.20;99.90;;;;;;5035153;28;20290;-92
2022/12/30 11:07:04;;;;;;;8.13;2.22;;;9.20;99.90;;;;;;5037373;28;20517;-90
2022/12/30 11:09:33;;;;;;;4.73;1.80;;;9.30;99.90;;;;;;5039023;28;20724;-91
2022/12/30 11:15:18;;;;;;;4.50;1.67;;;9.10;99.90;;;;;;5046407;28;20209;-90
2022/12/30 11:17:51;;;;;;;3.47;1.27;;;9.00;99.90;;;;;;5044799;28;20223;-93
2022/12/30 11:20:31;;;;;;;5.13;1.60;;;8.90;99.90;;;;;;5041309;28;20251;-92
2022/12/30 11:23:08;;;;;;;6.80;1.95;;;8.90;99.90;;;;;;5037216;28;20488;-91
2022/12/30 11:25:54;;;;;;;6.60;1.80;;;8.90;99.90;;;;;;5050637;28;20213;-91
2022/12/30 11:28:37;;;;;;;4.87;1.50;;;8.80;99.90;;;;;;5036999;28;20211;-91
2022/12/30 11:31:07;;;;;;;3.03;1.40;;;8.80;99.90;;;;;;5057162;28;20231;-91
2022/12/30 11:33:47;;;;;;;2.07;1.30;;;8.80;99.90;;;;;;5048637;28;20297;-91
2022/12/30 11:36:20;;;;;;;5.83;1.93;;;8.70;99.90;;;;;;5047937;28;20310;-91
2022/12/30 11:38:49;;;;;;;8.40;1.40;;;8.70;99.90;;;;;;5045983;28;20254;-93
2022/12/30 11:41:28;;;;;;;3.90;1.30;;;8.60;99.90;;;;;;5049702;28;20263;-93
2022/12/30 11:44:16;;;;;;;3.87;1.40;;;8.70;99.90;;;;;;5031217;28;20232;-91
2022/12/30 11:46:51;;;;;;;5.17;1.17;;;8.70;99.90;;;;;;5051696;28;20321;-93
2022/12/30 11:49:47;;;;;;;2.53;1.03;;;8.60;99.90;;;;;;5044028;28;20235;-93
2022/12/30 11:52:24;;;;;;;3.60;1.43;;;8.70;99.90;;;;;;5045175;28;20229;-92
2022/12/30 11:54:55;;;;;;;3.23;1.30;;;8.70;99.90;;;;;;5047343;28;20241;-91
2022/12/30 11:57:28;;;;;;;2.53;1.20;;;8.60;99.90;;;;;;5039907;28;20211;-92
2022/12/30 12:00:00;;;;;;;5.53;1.47;;;8.70;99.90;;;;;;5040428;28;20249;-92
2022/12/30 12:02:35;;;;;;;3.83;1.20;;;8.60;99.90;;;;;;5039107;28;20551;-94
2022/12/30 12:05:27;;;;;;;4.50;1.10;;;8.60;99.90;;;;;;5042086;28;20228;-92
2022/12/30 12:08:04;;;;;;;3.67;1.03;;;8.70;99.90;;;;;;5052005;28;20223;-90
2022/12/30 12:10:42;;;;;;;2.60;1.10;;;8.80;99.90;;;;;;5054466;28;20299;-93
2022/12/30 12:13:27;;;;;;;2.27;0.97;;;8.80;99.90;;;;;;5031351;28;20268;-93
2022/12/30 12:16:01;;;;;;;2.25;1.20;;;8.90;99.90;;;;;;5053293;28;20459;-91
2022/12/30 12:18:34;;;;;;;1.67;1.00;;;8.80;99.90;;;;;;5038887;28;20333;-93
2022/12/30 12:21:12;;;;;;;1.80;0.90;;;8.90;99.90;;;;;;5077492;28;20748;-95
2022/12/30 12:23:48;;;;;;;3.47;1.10;;;8.90;99.90;;;;;;5077905;28;20270;-91
2022/12/30 12:26:20;;;;;;;1.43;0.90;;;8.90;99.90;;;;;;5055059;28;20293;-93
2022/12/30 12:28:53;;;;;;;3.70;1.00;;;9.00;99.90;;;;;;5036835;28;20306;-90
2022/12/30 12:31:47;;;;;;;2.53;1.00;;;8.90;99.90;;;;;;5045700;28;20248;-92
2022/12/30 12:34:35;;;;;;;2.10;1.20;;;9.10;99.90;;;;;;5055002;28;20438;-91
2022/12/30 12:37:23;;;;;;;1.23;0.80;;;9.00;99.90;;;;;;5038490;28;20298;-89
2022/12/30 12:40:33;;;;;;;1.13;0.90;;;9.00;99.90;;;;;;5052837;28;20226;-90
2022/12/30 12:43:10;;;;;;;0.93;0.90;;;9.00;99.90;;;;;;5057117;28;20288;-90
2022/12/30 12:46:01;;;;;;;0.97;0.80;;;9.00;99.90;;;;;;5047794;28;20269;-92
2022/12/30 12:48:41;;;;;;;1.73;1.17;;;9.00;99.90;;;;;;5052142;28;20220;-92
2022/12/30 12:51:27;;;;;;;0.83;0.83;;;9.00;99.90;;;;;;5043118;28;20227;-92
2022/12/30 12:54:22;;;;;;;1.27;0.97;;;9.00;99.90;;;;;;5036663;28;20218;-91
2022/12/30 12:57:02;;;;;;;2.57;0.87;;;9.00;99.90;;;;;;5036593;28;20215;-89
2022/12/30 12:59:48;;;;;;;2.30;0.90;;;9.10;99.90;;;;;;5050722;28;20301;-93
2022/12/30 13:02:56;;;;;;;2.23;0.90;;;9.30;99.90;;;;;;5036737;28;20203;-91
2022/12/30 13:05:33;;;;;;;1.87;0.70;;;9.20;99.90;;;;;;5050176;28;20297;-92
2022/12/30 13:08:08;;;;;;;1.23;0.60;;;9.20;99.90;;;;;;5045276;28;20210;-91
2022/12/30 13:10:44;;;;;;;1.83;0.95;;;9.30;99.90;;;;;;5068629;28;20905;-92
2022/12/30 13:13:19;;;;;;;1.87;0.80;;;9.40;99.90;;;;;;5053832;28;20206;-91
2022/12/30 13:15:54;;;;;;;0.60;0.60;;;9.40;99.90;;;;;;5043712;28;20229;-93
2022/12/30 13:18:25;;;;;;;2.40;0.70;;;9.40;99.90;;;;;;5041063;28;22111;-91
2022/12/30 13:21:02;;;;;;;1.27;0.60;;;9.40;99.90;;;;;;5036413;28;20249;-90
2022/12/30 13:23:43;;;;;;;0.80;0.73;;;9.50;99.90;;;;;;5036696;28;20206;-94
2022/12/30 13:26:11;;;;;;;0.70;0.70;;;9.50;99.90;;;;;;5051528;28;20309;-92
2022/12/30 13:28:43;;;;;;;0.90;0.70;;;9.50;99.90;;;;;;5048096;28;20306;-93
2022/12/30 13:31:22;;;;;;;1.30;0.60;;;9.50;99.90;;;;;;5069131;28;20325;-92
2022/12/30 13:34:03;;;;;;;1.73;0.70;;;9.50;99.90;;;;;;5075331;28;20193;-91
2022/12/30 13:36:38;;;;;;;1.03;0.87;;;9.50;99.90;;;;;;5069117;28;20289;-91
2022/12/30 13:39:17;;;;;;;1.17;0.80;;;9.50;99.90;;;;;;5068138;28;20316;-92
2022/12/30 13:42:22;;;;;;;1.00;0.90;;;9.50;99.90;;;;;;5074855;28;20285;-93
2022/12/30 13:44:49;;;;;;;1.50;0.80;;;9.60;99.90;;;;;;5028054;28;20513;-92
2022/12/30 13:47:36;;;;;;;0.63;0.63;;;9.70;99.90;;;;;;5062801;28;20606;-92
2022/12/30 13:50:15;;;;;;;0.70;0.70;;;9.60;99.90;;;;;;5049504;28;20218;-89
2022/12/30 13:52:47;;;;;;;0.60;0.60;;;9.70;99.90;;;;;;5061561;28;20209;-91
2022/12/30 13:55:21;;;;;;;1.10;0.67;;;9.70;99.90;;;;;;5074391;28;20293;-90
2022/12/30 13:57:55;;;;;;;1.07;0.60;;;9.70;99.90;;;;;;5056163;28;20198;-92
2022/12/30 14:00:30;;;;;;;0.50;0.50;;;9.70;99.90;;;;;;5066097;28;20696;-90
2022/12/30 14:03:05;;;;;;;1.63;0.80;;;9.80;99.90;;;;;;5059834;28;20627;-94
2022/12/30 14:06:00;;;;;;;0.60;0.60;;;9.90;99.90;;;;;;5060398;28;20218;-93
2022/12/30 14:09:10;;;;;;;0.43;0.43;;;9.90;99.90;;;;;;5060029;28;20611;-93
2022/12/30 14:11:37;;;;;;;0.50;0.50;;;10.00;99.90;;;;;;5039375;28;20629;-92
2022/12/30 14:14:21;;;;;;;1.50;0.60;;;10.10;99.90;;;;;;5041478;28;20199;-90
2022/12/30 14:16:56;;;;;;;0.53;0.53;;;10.10;99.90;;;;;;5055275;28;20212;-93
2022/12/30 14:19:46;;;;;;;1.23;0.60;;;10.10;99.90;;;;;;5051987;28;20243;-93
2022/12/30 14:22:51;;;;;;;1.10;0.63;;;10.20;99.90;;;;;;5034519;28;20203;-94
2022/12/30 14:25:38;;;;;;;1.50;0.57;;;10.20;99.90;;;;;;5059165;28;20224;-91
2022/12/30 14:28:22;;;;;;;0.80;0.80;;;10.30;99.90;;;;;;5051771;28;20229;-94
2022/12/30 14:30:52;;;;;;;0.60;0.60;;;10.30;99.90;;;;;;5069908;28;20245;-91